sensor_id;sensor_type;location;lat;lon;timestamp;pressure;altitude;pressure_sealevel;temperature;humidity
18918;BME280;9591;52.742;13.650;2023-02-28T00:00:11;102698.88;;;0.59;100.00
18918;BME280;9591;52.742;13.650;2023-02-28T00:02:58;102694.38;;;0.55;100.00
18918;BME280;9591;52.742;13.650;2023-02-28T00:05:45;102694.44;;;0.56;100.00
18918;BME280;9591;52.742;13.650;2023-02-28T00:08:33;102692.59;;;0.54;100.00
18918;BME280;9591;52.742;13.650;2023-02-28T00:11:20;102691.81;;;0.56;100.00
18918;BME280;9591;52.742;13.650;2023-02-28T00:14:07;102695.97;;;0.51;100.00
18918;BME280;9591;52.742;13.650;2023-02-28T00:16:54;102694.75;;;0.43;100.00
18918;BME280;9591;52.742;13.650;2023-02-28T00:19:40;102690.13;;;0.36;100.00
18918;BME280;9591;52.742;13.650;2023-02-28T00:22:27;102696.81;;;0.29;100.00
18918;BME280;9591;52.742;13.650;2023-02-28T00:25:17;102705.47;;;0.28;100.00
18918;BME280;9591;52.742;13.650;2023-02-28T00:28:04;102695.59;;;0.42;100.00
18918;BME280;9591;52.742;13.650;2023-02-28T00:30:51;102694.28;;;0.31;100.00
18918;BME280;9591;52.742;13.650;2023-02-28T00:33:38;102696.03;;;0.32;100.00
18918;BME280;9591;52.742;13.650;2023-02-28T00:36:25;102695.16;;;0.31;100.00
18918;BME280;9591;52.742;13.650;2023-02-28T00:39:11;102689.94;;;0.31;100.00
18918;BME280;9591;52.742;13.650;2023-02-28T00:42:00;102700.19;;;0.27;100.00
18918;BME280;9591;52.742;13.650;2023-02-28T00:44:47;102700.63;;;0.17;100.00
18918;BME280;9591;52.742;13.650;2023-02-28T00:47:36;102700.44;;;0.12;100.00
18918;BME280;9591;52.742;13.650;2023-02-28T00:50:23;102697.06;;;0.15;100.00
18918;BME280;9591;52.742;13.650;2023-02-28T00:53:10;102697.44;;;0.24;100.00
18918;BME280;9591;52.742;13.650;2023-02-28T00:56:02;102698.84;;;0.16;100.00
18918;BME280;9591;52.742;13.650;2023-02-28T00:58:50;102701.91;;;0.06;100.00
18918;BME280;9591;52.742;13.650;2023-02-28T01:01:38;102702.84;;;0.08;100.00
18918;BME280;9591;52.742;13.650;2023-02-28T01:04:26;102690.84;;;0.32;100.00
18918;BME280;9591;52.742;13.650;2023-02-28T01:07:13;102706.03;;;0.21;100.00
18918;BME280;9591;52.742;13.650;2023-02-28T01:10:00;102698.72;;;0.13;100.00
18918;BME280;9591;52.742;13.650;2023-02-28T01:12:47;102701.97;;;0.07;100.00
18918;BME280;9591;52.742;13.650;2023-02-28T01:15:35;102689.19;;;0.13;100.00
18918;BME280;9591;52.742;13.650;2023-02-28T01:18:23;102694.44;;;-0.08;100.00
18918;BME280;9591;52.742;13.650;2023-02-28T01:21:12;102692.84;;;-0.04;100.00
18918;BME280;9591;52.742;13.650;2023-02-28T01:23:58;102700.41;;;-0.10;100.00
18918;BME280;9591;52.742;13.650;2023-02-28T01:26:45;102694.16;;;-0.14;100.00
18918;BME280;9591;52.742;13.650;2023-02-28T01:29:32;102694.16;;;-0.14;100.00
18918;BME280;9591;52.742;13.650;2023-02-28T01:32:20;102694.72;;;-0.21;100.00
18918;BME280;9591;52.742;13.650;2023-02-28T01:35:08;102687.66;;;-0.23;100.00
18918;BME280;9591;52.742;13.650;2023-02-28T01:37:55;102691.84;;;-0.27;100.00
18918;BME280;9591;52.742;13.650;2023-02-28T01:40:54;102686.50;;;-0.30;100.00
18918;BME280;9591;52.742;13.650;2023-02-28T01:43:56;102691.59;;;-0.33;100.00
18918;BME280;9591;52.742;13.650;2023-02-28T01:46:43;102685.56;;;-0.32;100.00
18918;BME280;9591;52.742;13.650;2023-02-28T01:49:33;102680.16;;;-0.37;100.00
18918;BME280;9591;52.742;13.650;2023-02-28T01:52:20;102685.31;;;-0.17;100.00
18918;BME280;9591;52.742;13.650;2023-02-28T01:55:12;102658.69;;;-0.31;100.00
18918;BME280;9591;52.742;13.650;2023-02-28T01:58:02;102677.63;;;-0.35;100.00
18918;BME280;9591;52.742;13.650;2023-02-28T02:00:50;102682.69;;;-0.38;100.00
18918;BME280;9591;52.742;13.650;2023-02-28T02:03:38;102677.47;;;-0.38;100.00
18918;BME280;9591;52.742;13.650;2023-02-28T02:06:34;102690.25;;;-0.44;100.00
18918;BME280;9591;52.742;13.650;2023-02-28T02:09:25;102682.13;;;-0.31;100.00
18918;BME280;9591;52.742;13.650;2023-02-28T02:12:22;102687.81;;;-0.20;100.00
18918;BME280;9591;52.742;13.650;2023-02-28T02:15:16;102682.34;;;-0.46;100.00
18918;BME280;9591;52.742;13.650;2023-02-28T02:18:09;102689.75;;;-0.55;100.00
18918;BME280;9591;52.742;13.650;2023-02-28T02:21:16;102686.19;;;-0.57;100.00
18918;BME280;9591;52.742;13.650;2023-02-28T02:24:42;102685.19;;;-0.60;100.00
18918;BME280;9591;52.742;13.650;2023-02-28T02:27:53;102677.97;;;-0.66;100.00
18918;BME280;9591;52.742;13.650;2023-02-28T02:31:25;102687.78;;;-0.60;100.00
18918;BME280;9591;52.742;13.650;2023-02-28T02:34:30;102689.28;;;-0.66;100.00
18918;BME280;9591;52.742;13.650;2023-02-28T02:37:29;102691.75;;;-0.69;100.00
18918;BME280;9591;52.742;13.650;2023-02-28T02:40:22;102680.78;;;-0.81;100.00
18918;BME280;9591;52.742;13.650;2023-02-28T02:43:13;102689.56;;;-0.79;100.00
18918;BME280;9591;52.742;13.650;2023-02-28T02:46:05;102686.22;;;-0.76;100.00
18918;BME280;9591;52.742;13.650;2023-02-28T02:48:56;102690.25;;;-0.83;100.00
18918;BME280;9591;52.742;13.650;2023-02-28T02:51:46;102690.09;;;-0.86;100.00
18918;BME280;9591;52.742;13.650;2023-02-28T02:54:35;102686.50;;;-0.89;100.00
18918;BME280;9591;52.742;13.650;2023-02-28T02:57:25;102689.94;;;-0.90;100.00
18918;BME280;9591;52.742;13.650;2023-02-28T03:00:15;102687.25;;;-0.92;100.00
18918;BME280;9591;52.742;13.650;2023-02-28T03:03:05;102686.50;;;-0.89;100.00
18918;BME280;9591;52.742;13.650;2023-02-28T03:05:55;102688.97;;;-0.92;100.00
18918;BME280;9591;52.742;13.650;2023-02-28T03:08:43;102687.41;;;-0.89;100.00
18918;BME280;9591;52.742;13.650;2023-02-28T03:11:31;102684.59;;;-0.93;100.00
18918;BME280;9591;52.742;13.650;2023-02-28T03:14:25;102689.44;;;-1.01;100.00
18918;BME280;9591;52.742;13.650;2023-02-28T03:17:27;102689.50;;;-1.00;100.00
18918;BME280;9591;52.742;13.650;2023-02-28T03:20:27;102694.44;;;-1.06;100.00
18918;BME280;9591;52.742;13.650;2023-02-28T03:23:21;102699.56;;;-1.07;100.00
18918;BME280;9591;52.742;13.650;2023-02-28T03:26:18;102691.63;;;-1.10;100.00
18918;BME280;9591;52.742;13.650;2023-02-28T03:29:10;102698.44;;;-1.12;100.00
18918;BME280;9591;52.742;13.650;2023-02-28T03:32:05;102702.00;;;-1.10;100.00
18918;BME280;9591;52.742;13.650;2023-02-28T03:35:02;102710.63;;;-1.11;100.00
18918;BME280;9591;52.742;13.650;2023-02-28T03:37:53;102696.34;;;-1.02;100.00
18918;BME280;9591;52.742;13.650;2023-02-28T03:40:47;102706.19;;;-1.14;100.00
18918;BME280;9591;52.742;13.650;2023-02-28T03:43:39;102705.75;;;-1.23;100.00
18918;BME280;9591;52.742;13.650;2023-02-28T03:46:30;102701.75;;;-0.97;100.00
18918;BME280;9591;52.742;13.650;2023-02-28T03:49:21;102699.22;;;-0.95;100.00
18918;BME280;9591;52.742;13.650;2023-02-28T03:52:09;102697.28;;;-1.19;100.00
18918;BME280;9591;52.742;13.650;2023-02-28T03:55:00;102715.91;;;-1.10;100.00
18918;BME280;9591;52.742;13.650;2023-02-28T03:58:05;102716.75;;;-1.28;100.00
18918;BME280;9591;52.742;13.650;2023-02-28T04:01:02;102670.94;;;-1.44;100.00
18918;BME280;9591;52.742;13.650;2023-02-28T04:03:53;102713.72;;;-1.38;100.00
18918;BME280;9591;52.742;13.650;2023-02-28T04:06:40;102723.28;;;-1.37;100.00
18918;BME280;9591;52.742;13.650;2023-02-28T04:09:27;102720.25;;;-1.46;100.00
18918;BME280;9591;52.742;13.650;2023-02-28T04:12:13;102718.41;;;-1.48;100.00
18918;BME280;9591;52.742;13.650;2023-02-28T04:15:00;102715.28;;;-1.59;100.00
18918;BME280;9591;52.742;13.650;2023-02-28T04:17:48;102709.03;;;-1.62;100.00
18918;BME280;9591;52.742;13.650;2023-02-28T04:20:35;102713.34;;;-1.63;100.00
18918;BME280;9591;52.742;13.650;2023-02-28T04:23:22;102718.53;;;-1.63;100.00
18918;BME280;9591;52.742;13.650;2023-02-28T04:26:09;102725.53;;;-1.62;100.00
18918;BME280;9591;52.742;13.650;2023-02-28T04:28:56;102726.56;;;-1.58;100.00
18918;BME280;9591;52.742;13.650;2023-02-28T04:31:43;102717.94;;;-1.57;100.00
18918;BME280;9591;52.742;13.650;2023-02-28T04:34:31;102727.91;;;-1.67;100.00
18918;BME280;9591;52.742;13.650;2023-02-28T04:37:18;102725.22;;;-1.68;100.00
18918;BME280;9591;52.742;13.650;2023-02-28T04:40:06;102725.84;;;-1.74;100.00
18918;BME280;9591;52.742;13.650;2023-02-28T04:42:53;102718.91;;;-1.73;100.00
18918;BME280;9591;52.742;13.650;2023-02-28T04:45:40;102722.78;;;-1.83;100.00
18918;BME280;9591;52.742;13.650;2023-02-28T04:48:28;102720.41;;;-1.78;100.00
18918;BME280;9591;52.742;13.650;2023-02-28T04:51:18;102726.19;;;-1.84;100.00
18918;BME280;9591;52.742;13.650;2023-02-28T04:54:06;102728.66;;;-1.87;100.00
18918;BME280;9591;52.742;13.650;2023-02-28T04:56:52;102725.16;;;-1.87;100.00
18918;BME280;9591;52.742;13.650;2023-02-28T04:59:40;102730.19;;;-1.90;100.00
18918;BME280;9591;52.742;13.650;2023-02-28T05:02:27;102730.72;;;-1.98;100.00
18918;BME280;9591;52.742;13.650;2023-02-28T05:05:13;102730.63;;;-1.99;100.00
18918;BME280;9591;52.742;13.650;2023-02-28T05:08:04;102732.88;;;-1.89;100.00
18918;BME280;9591;52.742;13.650;2023-02-28T05:10:51;102736.78;;;-1.97;100.00
18918;BME280;9591;52.742;13.650;2023-02-28T05:13:38;102739.31;;;-1.99;100.00
18918;BME280;9591;52.742;13.650;2023-02-28T05:16:25;102739.69;;;-1.91;100.00
18918;BME280;9591;52.742;13.650;2023-02-28T05:19:12;102693.75;;;-2.26;100.00
18918;BME280;9591;52.742;13.650;2023-02-28T05:21:59;102746.06;;;-2.02;100.00
18918;BME280;9591;52.742;13.650;2023-02-28T05:24:47;102742.50;;;-2.04;100.00
18918;BME280;9591;52.742;13.650;2023-02-28T05:27:34;102745.16;;;-2.03;100.00
18918;BME280;9591;52.742;13.650;2023-02-28T05:30:20;102751.66;;;-2.11;100.00
18918;BME280;9591;52.742;13.650;2023-02-28T05:33:10;102753.13;;;-2.00;100.00
18918;BME280;9591;52.742;13.650;2023-02-28T05:35:57;102760.44;;;-2.09;100.00
18918;BME280;9591;52.742;13.650;2023-02-28T05:38:46;102756.72;;;-2.14;100.00
18918;BME280;9591;52.742;13.650;2023-02-28T05:41:34;102759.88;;;-2.19;100.00
18918;BME280;9591;52.742;13.650;2023-02-28T05:44:20;102762.56;;;-2.18;100.00
18918;BME280;9591;52.742;13.650;2023-02-28T05:47:07;102761.50;;;-2.21;100.00
18918;BME280;9591;52.742;13.650;2023-02-28T05:49:54;102760.63;;;-2.22;100.00
18918;BME280;9591;52.742;13.650;2023-02-28T05:52:41;102765.81;;;-2.22;100.00
18918;BME280;9591;52.742;13.650;2023-02-28T05:55:27;102749.34;;;-2.22;100.00
18918;BME280;9591;52.742;13.650;2023-02-28T05:58:16;102765.97;;;-2.19;100.00
18918;BME280;9591;52.742;13.650;2023-02-28T06:01:25;102768.63;;;-2.17;100.00
18918;BME280;9591;52.742;13.650;2023-02-28T06:04:18;102766.91;;;-2.01;100.00
18918;BME280;9591;52.742;13.650;2023-02-28T06:07:18;102755.72;;;-2.00;100.00
18918;BME280;9591;52.742;13.650;2023-02-28T06:10:15;102761.72;;;-2.01;100.00
18918;BME280;9591;52.742;13.650;2023-02-28T06:13:03;102728.25;;;-2.28;100.00
18918;BME280;9591;52.742;13.650;2023-02-28T06:15:51;102770.16;;;-2.05;100.00
18918;BME280;9591;52.742;13.650;2023-02-28T06:18:38;102770.97;;;-2.06;100.00
18918;BME280;9591;52.742;13.650;2023-02-28T06:21:26;102771.22;;;-2.01;100.00
18918;BME280;9591;52.742;13.650;2023-02-28T06:24:13;102768.69;;;-2.00;100.00
18918;BME280;9591;52.742;13.650;2023-02-28T06:27:02;102782.00;;;-1.93;100.00
18918;BME280;9591;52.742;13.650;2023-02-28T06:29:53;102782.31;;;-1.87;100.00
18918;BME280;9591;52.742;13.650;2023-02-28T06:32:42;102719.53;;;-2.13;100.00
18918;BME280;9591;52.742;13.650;2023-02-28T06:35:30;102792.50;;;-1.74;100.00
18918;BME280;9591;52.742;13.650;2023-02-28T06:38:18;102794.50;;;-1.69;100.00
18918;BME280;9591;52.742;13.650;2023-02-28T06:41:05;102791.88;;;-1.69;100.00
18918;BME280;9591;52.742;13.650;2023-02-28T06:43:53;102794.88;;;-1.61;100.00
18918;BME280;9591;52.742;13.650;2023-02-28T06:46:44;102794.38;;;-1.54;100.00
18918;BME280;9591;52.742;13.650;2023-02-28T06:49:34;102797.50;;;-1.43;100.00
18918;BME280;9591;52.742;13.650;2023-02-28T06:52:23;102802.41;;;-1.32;100.00
18918;BME280;9591;52.742;13.650;2023-02-28T06:55:10;102799.81;;;-1.32;100.00
18918;BME280;9591;52.742;13.650;2023-02-28T06:57:57;102804.94;;;-1.15;100.00
18918;BME280;9591;52.742;13.650;2023-02-28T07:00:45;102756.06;;;-1.40;100.00
18918;BME280;9591;52.742;13.650;2023-02-28T07:03:32;102805.47;;;-1.05;100.00
18918;BME280;9591;52.742;13.650;2023-02-28T07:06:20;102798.03;;;-0.97;100.00
18918;BME280;9591;52.742;13.650;2023-02-28T07:09:08;102792.22;;;-0.91;100.00
18918;BME280;9591;52.742;13.650;2023-02-28T07:11:56;102807.19;;;-0.86;100.00
18918;BME280;9591;52.742;13.650;2023-02-28T07:14:42;102802.19;;;-0.81;100.00
18918;BME280;9591;52.742;13.650;2023-02-28T07:17:29;102805.03;;;-0.77;100.00
18918;BME280;9591;52.742;13.650;2023-02-28T07:20:16;102806.28;;;-0.69;100.00
18918;BME280;9591;52.742;13.650;2023-02-28T07:23:04;102809.16;;;-0.62;100.00
18918;BME280;9591;52.742;13.650;2023-02-28T07:25:51;102810.41;;;-0.54;100.00
18918;BME280;9591;52.742;13.650;2023-02-28T07:28:38;102810.75;;;-0.47;100.00
18918;BME280;9591;52.742;13.650;2023-02-28T07:31:25;102800.69;;;-0.39;100.00
18918;BME280;9591;52.742;13.650;2023-02-28T07:34:12;102798.28;;;-0.35;100.00
18918;BME280;9591;52.742;13.650;2023-02-28T07:36:59;102805.56;;;-0.27;100.00
18918;BME280;9591;52.742;13.650;2023-02-28T07:39:50;102805.78;;;-0.23;100.00
18918;BME280;9591;52.742;13.650;2023-02-28T07:42:37;102806.19;;;-0.14;100.00
18918;BME280;9591;52.742;13.650;2023-02-28T07:45:24;102808.16;;;-0.08;100.00
18918;BME280;9591;52.742;13.650;2023-02-28T07:48:11;102808.38;;;-0.04;100.00
18918;BME280;9591;52.742;13.650;2023-02-28T07:50:58;102811.75;;;0.15;100.00
18918;BME280;9591;52.742;13.650;2023-02-28T07:53:45;102813.19;;;0.48;100.00
18918;BME280;9591;52.742;13.650;2023-02-28T07:56:34;102804.19;;;0.83;100.00
18918;BME280;9591;52.742;13.650;2023-02-28T07:59:20;102810.03;;;1.21;100.00
18918;BME280;9591;52.742;13.650;2023-02-28T08:02:10;102804.19;;;1.50;100.00
18918;BME280;9591;52.742;13.650;2023-02-28T08:04:59;102801.94;;;1.59;99.60
18918;BME280;9591;52.742;13.650;2023-02-28T08:07:48;102804.28;;;2.01;99.96
18918;BME280;9591;52.742;13.650;2023-02-28T08:10:35;102805.69;;;2.41;100.00
18918;BME280;9591;52.742;13.650;2023-02-28T08:13:24;102805.09;;;2.76;97.09
18918;BME280;9591;52.742;13.650;2023-02-28T08:16:12;102805.09;;;2.76;97.26
18918;BME280;9591;52.742;13.650;2023-02-28T08:19:00;102803.34;;;2.48;99.91
18918;BME280;9591;52.742;13.650;2023-02-28T08:21:47;102801.47;;;3.26;97.93
18918;BME280;9591;52.742;13.650;2023-02-28T08:24:34;102793.50;;;3.53;93.50
18918;BME280;9591;52.742;13.650;2023-02-28T08:27:21;102780.56;;;3.89;93.21
18918;BME280;9591;52.742;13.650;2023-02-28T08:30:11;102798.13;;;4.23;93.66
18918;BME280;9591;52.742;13.650;2023-02-28T08:32:58;102797.19;;;4.21;93.70
18918;BME280;9591;52.742;13.650;2023-02-28T08:35:47;102800.78;;;3.93;95.02
18918;BME280;9591;52.742;13.650;2023-02-28T08:38:46;102797.56;;;4.04;96.55
18918;BME280;9591;52.742;13.650;2023-02-28T08:41:37;102803.53;;;3.98;97.52
18918;BME280;9591;52.742;13.650;2023-02-28T08:44:24;102792.41;;;5.12;89.40
18918;BME280;9591;52.742;13.650;2023-02-28T08:47:14;102789.16;;;6.09;83.51
18918;BME280;9591;52.742;13.650;2023-02-28T08:50:01;102799.09;;;6.74;77.90
18918;BME280;9591;52.742;13.650;2023-02-28T08:52:47;102803.34;;;7.23;75.57
18918;BME280;9591;52.742;13.650;2023-02-28T08:55:34;102811.03;;;7.09;75.91
18918;BME280;9591;52.742;13.650;2023-02-28T08:58:21;102804.78;;;6.48;78.15
18918;BME280;9591;52.742;13.650;2023-02-28T09:01:09;102807.41;;;5.58;83.23
18918;BME280;9591;52.742;13.650;2023-02-28T09:04:00;102808.84;;;5.44;86.19
18918;BME280;9591;52.742;13.650;2023-02-28T09:06:47;102804.13;;;5.27;87.19
18918;BME280;9591;52.742;13.650;2023-02-28T09:09:34;102807.66;;;5.30;87.65
18918;BME280;9591;52.742;13.650;2023-02-28T09:12:21;102806.34;;;5.09;86.33
18918;BME280;9591;52.742;13.650;2023-02-28T09:15:09;102810.19;;;4.86;86.73
18918;BME280;9591;52.742;13.650;2023-02-28T09:17:55;102816.56;;;4.97;81.34
18918;BME280;9591;52.742;13.650;2023-02-28T09:20:44;102802.63;;;5.00;80.19
18918;BME280;9591;52.742;13.650;2023-02-28T09:23:30;102813.34;;;5.09;64.03
18918;BME280;9591;52.742;13.650;2023-02-28T09:26:20;102814.97;;;5.04;57.67
18918;BME280;9591;52.742;13.650;2023-02-28T09:29:09;102809.72;;;5.43;58.62
18918;BME280;9591;52.742;13.650;2023-02-28T09:31:59;102803.66;;;5.47;57.40
18918;BME280;9591;52.742;13.650;2023-02-28T09:34:46;102812.41;;;5.46;53.60
18918;BME280;9591;52.742;13.650;2023-02-28T09:37:34;102817.81;;;5.53;52.97
18918;BME280;9591;52.742;13.650;2023-02-28T09:40:24;102820.75;;;5.67;48.99
18918;BME280;9591;52.742;13.650;2023-02-28T09:43:14;102821.19;;;5.88;49.75
18918;BME280;9591;52.742;13.650;2023-02-28T09:46:08;102760.16;;;5.61;48.34
18918;BME280;9591;52.742;13.650;2023-02-28T09:49:00;102817.41;;;6.18;51.04
18918;BME280;9591;52.742;13.650;2023-02-28T09:51:50;102821.59;;;6.08;51.46
18918;BME280;9591;52.742;13.650;2023-02-28T09:54:41;102827.66;;;6.03;48.65
18918;BME280;9591;52.742;13.650;2023-02-28T09:57:32;102823.34;;;6.08;50.42
18918;BME280;9591;52.742;13.650;2023-02-28T10:00:25;102816.31;;;6.07;52.32
18918;BME280;9591;52.742;13.650;2023-02-28T10:03:29;102824.09;;;6.01;46.38
18918;BME280;9591;52.742;13.650;2023-02-28T10:06:19;102824.06;;;5.99;47.51
18918;BME280;9591;52.742;13.650;2023-02-28T10:09:10;102822.63;;;6.16;49.36
18918;BME280;9591;52.742;13.650;2023-02-28T10:12:04;102822.03;;;6.31;49.06
18918;BME280;9591;52.742;13.650;2023-02-28T10:14:52;102823.69;;;5.81;47.34
18918;BME280;9591;52.742;13.650;2023-02-28T10:17:43;102828.28;;;6.38;50.07
18918;BME280;9591;52.742;13.650;2023-02-28T10:20:41;102817.13;;;6.51;50.12
18918;BME280;9591;52.742;13.650;2023-02-28T10:23:32;102834.34;;;6.82;49.40
18918;BME280;9591;52.742;13.650;2023-02-28T10:26:20;102833.47;;;6.83;49.38
18918;BME280;9591;52.742;13.650;2023-02-28T10:29:10;102834.34;;;6.82;47.63
18918;BME280;9591;52.742;13.650;2023-02-28T10:31:59;102832.66;;;6.87;49.50
18918;BME280;9591;52.742;13.650;2023-02-28T10:34:51;102825.56;;;6.32;46.43
18918;BME280;9591;52.742;13.650;2023-02-28T10:37:43;102829.06;;;6.32;46.72
18918;BME280;9591;52.742;13.650;2023-02-28T10:40:32;102821.84;;;6.22;46.82
18918;BME280;9591;52.742;13.650;2023-02-28T10:43:22;102823.63;;;6.71;46.51
18918;BME280;9591;52.742;13.650;2023-02-28T10:46:15;102810.59;;;7.39;44.46
18918;BME280;9591;52.742;13.650;2023-02-28T10:49:17;102800.91;;;8.11;43.58
18918;BME280;9591;52.742;13.650;2023-02-28T10:52:08;102792.66;;;8.68;44.17
18918;BME280;9591;52.742;13.650;2023-02-28T10:55:14;102789.66;;;9.48;42.14
18918;BME280;9591;52.742;13.650;2023-02-28T10:58:01;102789.59;;;9.35;39.94
18918;BME280;9591;52.742;13.650;2023-02-28T11:00:48;102766.50;;;9.06;39.75
18918;BME280;9591;52.742;13.650;2023-02-28T11:03:37;102776.19;;;9.07;41.02
18918;BME280;9591;52.742;13.650;2023-02-28T11:06:26;102769.31;;;9.34;40.03
18918;BME280;9591;52.742;13.650;2023-02-28T11:09:21;102774.47;;;9.12;39.56
18918;BME280;9591;52.742;13.650;2023-02-28T11:12:23;102769.78;;;8.73;39.70
18918;BME280;9591;52.742;13.650;2023-02-28T11:15:23;102773.78;;;8.27;38.53
18918;BME280;9591;52.742;13.650;2023-02-28T11:18:21;102772.84;;;8.22;42.23
18918;BME280;9591;52.742;13.650;2023-02-28T11:21:16;102782.75;;;8.41;40.95
18918;BME280;9591;52.742;13.650;2023-02-28T11:24:20;102784.47;;;8.36;40.55
18918;BME280;9591;52.742;13.650;2023-02-28T11:27:24;102775.50;;;8.23;44.10
18918;BME280;9591;52.742;13.650;2023-02-28T11:30:24;102777.63;;;8.58;42.11
18918;BME280;9591;52.742;13.650;2023-02-28T11:33:23;102780.19;;;8.50;40.45
18918;BME280;9591;52.742;13.650;2023-02-28T11:36:14;102780.13;;;8.41;42.55
18918;BME280;9591;52.742;13.650;2023-02-28T11:39:11;102781.88;;;8.42;41.79
18918;BME280;9591;52.742;13.650;2023-02-28T11:42:20;102779.09;;;8.30;42.60
18918;BME280;9591;52.742;13.650;2023-02-28T11:45:18;102782.56;;;8.26;43.58
18918;BME280;9591;52.742;13.650;2023-02-28T11:48:15;102787.59;;;8.02;43.13
18918;BME280;9591;52.742;13.650;2023-02-28T11:51:14;102750.38;;;7.74;43.18
18918;BME280;9591;52.742;13.650;2023-02-28T11:54:14;102782.78;;;7.64;45.08
18918;BME280;9591;52.742;13.650;2023-02-28T11:57:19;102775.03;;;7.76;44.61
18918;BME280;9591;52.742;13.650;2023-02-28T12:00:19;102772.34;;;7.73;44.10
18918;BME280;9591;52.742;13.650;2023-02-28T12:03:22;102765.94;;;7.53;45.56
18918;BME280;9591;52.742;13.650;2023-02-28T12:06:21;102753.81;;;7.67;46.25
18918;BME280;9591;52.742;13.650;2023-02-28T12:09:20;102750.56;;;7.93;47.16
18918;BME280;9591;52.742;13.650;2023-02-28T12:12:19;102752.31;;;7.94;45.96
18918;BME280;9591;52.742;13.650;2023-02-28T12:15:22;102751.53;;;7.27;43.45
18918;BME280;9591;52.742;13.650;2023-02-28T12:18:25;102746.38;;;7.36;43.84
18918;BME280;9591;52.742;13.650;2023-02-28T12:21:20;102736.19;;;7.65;45.75
18918;BME280;9591;52.742;13.650;2023-02-28T12:24:27;102730.22;;;7.82;47.85
18918;BME280;9591;52.742;13.650;2023-02-28T12:27:20;102731.13;;;7.84;45.23
18918;BME280;9591;52.742;13.650;2023-02-28T12:30:17;102720.53;;;7.78;43.94
18918;BME280;9591;52.742;13.650;2023-02-28T12:33:08;102718.13;;;8.04;46.58
18918;BME280;9591;52.742;13.650;2023-02-28T12:35:57;102709.41;;;8.13;44.58
18918;BME280;9591;52.742;13.650;2023-02-28T12:38:48;102712.59;;;7.75;43.42
18918;BME280;9591;52.742;13.650;2023-02-28T12:41:41;102703.88;;;7.85;45.92
18918;BME280;9591;52.742;13.650;2023-02-28T12:44:32;102701.38;;;8.01;44.57
18918;BME280;9591;52.742;13.650;2023-02-28T12:47:21;102697.72;;;7.86;43.51
18918;BME280;9591;52.742;13.650;2023-02-28T12:50:10;102665.97;;;7.74;44.36
18918;BME280;9591;52.742;13.650;2023-02-28T12:53:00;102675.75;;;7.87;45.70
18918;BME280;9591;52.742;13.650;2023-02-28T12:55:59;102682.06;;;8.03;44.50
18918;BME280;9591;52.742;13.650;2023-02-28T12:58:53;102682.28;;;8.29;45.12
18918;BME280;9591;52.742;13.650;2023-02-28T13:01:56;102683.75;;;7.98;44.51
18918;BME280;9591;52.742;13.650;2023-02-28T13:08:38;102672.16;;;7.81;42.92
18918;BME280;9591;52.742;13.650;2023-02-28T13:11:41;102678.31;;;7.81;44.64
18918;BME280;9591;52.742;13.650;2023-02-28T13:14:30;102671.31;;;7.83;43.18
18918;BME280;9591;52.742;13.650;2023-02-28T13:17:23;102629.75;;;7.58;43.32
18918;BME280;9591;52.742;13.650;2023-02-28T13:20:17;102677.44;;;7.82;42.63
18918;BME280;9591;52.742;13.650;2023-02-28T13:23:40;102678.31;;;7.78;46.32
18918;BME280;9591;52.742;13.650;2023-02-28T13:27:22;102671.34;;;7.88;46.38
18918;BME280;9591;52.742;13.650;2023-02-28T13:34:04;102680.97;;;7.83;43.40
18918;BME280;9591;52.742;13.650;2023-02-28T13:40:30;102693.88;;;7.54;43.14
18918;BME280;9591;52.742;13.650;2023-02-28T13:50:21;102672.94;;;7.68;44.89
18918;BME280;9591;52.742;13.650;2023-02-28T13:53:38;102670.34;;;7.72;46.45
18918;BME280;9591;52.742;13.650;2023-02-28T13:56:43;102664.31;;;7.87;46.24
18918;BME280;9591;52.742;13.650;2023-02-28T13:59:39;102661.59;;;7.76;44.87
18918;BME280;9591;52.742;13.650;2023-02-28T14:02:43;102659.84;;;7.77;44.91
18918;BME280;9591;52.742;13.650;2023-02-28T14:05:34;102658.13;;;7.83;45.55
18918;BME280;9591;52.742;13.650;2023-02-28T14:08:22;102650.31;;;7.96;45.17
18918;BME280;9591;52.742;13.650;2023-02-28T14:11:24;102645.78;;;7.82;45.51
18918;BME280;9591;52.742;13.650;2023-02-28T14:14:55;102652.81;;;7.79;45.84
18918;BME280;9591;52.742;13.650;2023-02-28T14:17:45;102651.00;;;7.72;48.80
18918;BME280;9591;52.742;13.650;2023-02-28T14:20:33;102651.06;;;7.81;45.46
18918;BME280;9591;52.742;13.650;2023-02-28T14:23:32;102650.22;;;7.86;47.51
18918;BME280;9591;52.742;13.650;2023-02-28T14:26:51;102650.13;;;7.73;46.91
18918;BME280;9591;52.742;13.650;2023-02-28T14:30:11;102649.28;;;7.77;45.95
18918;BME280;9591;52.742;13.650;2023-02-28T14:33:10;102650.94;;;7.66;47.39
18918;BME280;9591;52.742;13.650;2023-02-28T14:36:03;102647.50;;;7.74;45.77
18918;BME280;9591;52.742;13.650;2023-02-28T14:38:55;102641.28;;;7.68;45.78
18918;BME280;9591;52.742;13.650;2023-02-28T14:41:45;102643.13;;;7.76;49.07
18918;BME280;9591;52.742;13.650;2023-02-28T14:44:32;102650.78;;;7.50;45.62
18918;BME280;9591;52.742;13.650;2023-02-28T14:47:20;102648.25;;;7.61;47.41
18918;BME280;9591;52.742;13.650;2023-02-28T14:50:18;102638.50;;;7.52;49.21
18918;BME280;9591;52.742;13.650;2023-02-28T14:53:11;102645.59;;;7.60;45.94
18918;BME280;9591;52.742;13.650;2023-02-28T14:56:03;102619.91;;;7.42;45.82
18918;BME280;9591;52.742;13.650;2023-02-28T14:58:52;102630.28;;;7.27;44.72
18918;BME280;9591;52.742;13.650;2023-02-28T15:01:40;102642.72;;;7.38;45.45
18918;BME280;9591;52.742;13.650;2023-02-28T15:04:28;102634.88;;;7.44;45.08
18918;BME280;9591;52.742;13.650;2023-02-28T15:07:19;102634.84;;;7.41;47.99
18918;BME280;9591;52.742;13.650;2023-02-28T15:10:17;102634.75;;;7.34;47.91
18918;BME280;9591;52.742;13.650;2023-02-28T15:13:06;102632.84;;;7.19;47.43
18918;BME280;9591;52.742;13.650;2023-02-28T15:15:55;102626.59;;;7.11;49.20